Time;durP1;ratioP1;P1;durP2;ratioP2;P2;SDS_P1;SDS_P2;PMS_P1;PMS_P2;Temp;Humidity;BMP_temperature;BMP_pressure;BME280_temperature;BME280_humidity;BME280_pressure;Samples;Min_cycle;Max_cycle;Signal;HPM_P1;HPM_P2
2021/12/19 00:00:36;;;;;;;0.70;0.70;;;-1.20;99.90;;;;;;5011984;28;20253;-69
2021/12/19 00:03:31;;;;;;;0.70;0.70;;;-1.20;99.90;;;;;;5013874;28;20454;-68
2021/12/19 00:11:15;;;;;;;0.60;0.60;;;-1.20;99.90;;;;;;5013627;28;20210;-69
2021/12/19 00:13:41;;;;;;;0.80;0.80;;;-1.00;99.90;;;;;;5013383;28;20257;-69
2021/12/19 00:16:07;;;;;;;0.70;0.70;;;-0.90;99.90;;;;;;5011958;28;20239;-68
2021/12/19 00:18:33;;;;;;;0.70;0.70;;;-0.70;99.90;;;;;;5012115;28;20215;-68
2021/12/19 00:20:59;;;;;;;0.70;0.70;;;-0.60;99.90;;;;;;5013145;28;20290;-68
2021/12/19 00:23:26;;;;;;;0.80;0.80;;;-0.40;99.90;;;;;;5010411;28;20209;-69
2021/12/19 00:25:52;;;;;;;0.60;0.60;;;-0.30;99.90;;;;;;5010835;28;20297;-69
2021/12/19 00:28:18;;;;;;;0.75;0.75;;;-0.20;99.90;;;;;;5012101;28;20214;-69
2021/12/19 00:30:43;;;;;;;0.70;0.70;;;-0.20;99.90;;;;;;5013416;28;20216;-69
2021/12/19 00:33:09;;;;;;;0.70;0.70;;;-0.10;99.90;;;;;;5012055;28;20567;-70
2021/12/19 00:35:35;;;;;;;0.70;0.70;;;-0.10;99.90;;;;;;5013049;28;20282;-69
2021/12/19 00:38:01;;;;;;;1.05;0.90;;;-0.10;99.90;;;;;;5012016;28;20215;-68
2021/12/19 00:40:26;;;;;;;0.65;0.65;;;-0.30;99.90;;;;;;5012910;28;20218;-70
2021/12/19 00:43:02;;;;;;;0.77;0.77;;;-0.50;99.90;;;;;;5011220;28;20522;-69
2021/12/19 00:45:32;;;;;;;0.80;0.80;;;-0.60;99.90;;;;;;5013018;28;20199;-68
2021/12/19 00:47:59;;;;;;;0.90;0.90;;;-0.80;99.90;;;;;;5011717;28;20289;-68
2021/12/19 00:50:26;;;;;;;0.80;0.80;;;-0.80;99.90;;;;;;5011590;28;20280;-68
2021/12/19 00:52:52;;;;;;;1.83;1.63;;;-0.80;99.90;;;;;;5011774;28;20322;-69
2021/12/19 00:55:19;;;;;;;0.82;0.82;;;-0.80;99.90;;;;;;5011660;28;20263;-69
2021/12/19 00:57:46;;;;;;;0.90;0.90;;;-0.60;99.90;;;;;;5012801;28;20700;-68
2021/12/19 01:00:15;;;;;;;0.70;0.70;;;-0.30;99.90;;;;;;5011735;28;20277;-69
2021/12/19 01:02:42;;;;;;;0.63;0.63;;;0.00;99.90;;;;;;5012437;28;20243;-69
2021/12/19 01:05:09;;;;;;;0.70;0.70;;;0.20;99.90;;;;;;5012712;28;20207;-69
2021/12/19 01:07:35;;;;;;;0.70;0.70;;;0.50;99.90;;;;;;5011302;28;20215;-69
2021/12/19 01:10:01;;;;;;;0.77;0.77;;;0.70;99.90;;;;;;5010136;28;20262;-69
2021/12/19 01:12:27;;;;;;;0.70;0.70;;;0.80;99.90;;;;;;5011998;28;20218;-69
2021/12/19 01:14:53;;;;;;;0.70;0.70;;;1.00;99.90;;;;;;5011999;28;20256;-70
2021/12/19 01:17:19;;;;;;;0.63;0.63;;;1.10;99.90;;;;;;5012296;28;20626;-69
2021/12/19 01:19:45;;;;;;;0.60;0.60;;;1.20;99.90;;;;;;5010646;28;20241;-68
2021/12/19 01:22:12;;;;;;;0.60;0.60;;;1.20;99.90;;;;;;5012435;28;20568;-69
2021/12/19 01:24:37;;;;;;;0.70;0.70;;;1.10;99.90;;;;;;5012348;28;20202;-68
2021/12/19 01:27:04;;;;;;;0.80;0.80;;;0.90;99.90;;;;;;5009601;28;20206;-69
2021/12/19 01:29:30;;;;;;;0.93;0.93;;;0.70;99.90;;;;;;5011919;28;20206;-68
2021/12/19 01:31:56;;;;;;;0.80;0.80;;;0.60;99.90;;;;;;5010951;28;20214;-68
2021/12/19 01:34:22;;;;;;;0.70;0.70;;;0.40;99.90;;;;;;5010982;28;20234;-68
2021/12/19 01:36:48;;;;;;;0.70;0.70;;;0.10;99.90;;;;;;5011871;28;20246;-68
2021/12/19 01:39:14;;;;;;;0.80;0.80;;;0.00;99.90;;;;;;5011975;28;20655;-69
2021/12/19 01:41:56;;;;;;;0.60;0.60;;;-0.10;99.90;;;;;;5011833;28;20286;-69
2021/12/19 01:44:23;;;;;;;0.63;0.63;;;-0.10;99.90;;;;;;5010539;28;20270;-68
2021/12/19 01:46:49;;;;;;;0.88;0.88;;;-0.10;99.90;;;;;;5009242;28;20300;-69
2021/12/19 01:49:17;;;;;;;0.90;0.90;;;0.10;99.90;;;;;;5012013;28;20210;-69
2021/12/19 01:51:43;;;;;;;0.82;0.82;;;0.50;99.90;;;;;;5011745;28;20241;-68
2021/12/19 01:54:09;;;;;;;0.60;0.60;;;0.70;99.90;;;;;;5013129;28;20248;-68
2021/12/19 01:56:35;;;;;;;0.75;0.75;;;0.70;99.90;;;;;;5010287;28;20202;-69
2021/12/19 01:59:01;;;;;;;0.80;0.80;;;0.60;99.90;;;;;;5011819;28;20232;-70
2021/12/19 02:01:27;;;;;;;0.70;0.70;;;0.50;99.90;;;;;;5011840;28;20202;-71
2021/12/19 02:03:53;;;;;;;0.70;0.70;;;0.50;99.90;;;;;;5010642;28;20199;-71
2021/12/19 02:06:19;;;;;;;0.80;0.80;;;0.30;99.90;;;;;;5011867;28;20195;-71
2021/12/19 02:08:48;;;;;;;0.70;0.70;;;0.20;99.90;;;;;;5010749;28;20611;-71
2021/12/19 02:11:15;;;;;;;0.70;0.70;;;0.10;99.90;;;;;;5011570;28;20199;-71
2021/12/19 02:13:41;;;;;;;0.70;0.70;;;0.00;99.90;;;;;;5010725;28;20210;-71
2021/12/19 02:16:07;;;;;;;0.63;0.63;;;-0.10;99.90;;;;;;5010209;28;20270;-71
2021/12/19 02:18:33;;;;;;;0.80;0.80;;;-0.30;99.90;;;;;;5009921;28;20238;-71
2021/12/19 02:20:59;;;;;;;0.65;0.65;;;-0.40;99.90;;;;;;5011488;28;20225;-71
2021/12/19 02:23:27;;;;;;;0.70;0.70;;;-0.50;99.90;;;;;;5011450;28;20242;-71
2021/12/19 02:25:55;;;;;;;0.75;0.75;;;-0.60;99.90;;;;;;5011378;28;20203;-71
2021/12/19 02:28:22;;;;;;;0.70;0.70;;;-0.70;99.90;;;;;;5009867;28;20202;-71
2021/12/19 02:30:49;;;;;;;0.70;0.70;;;-0.70;99.90;;;;;;5010403;28;20203;-71
2021/12/19 02:33:19;;;;;;;0.70;0.70;;;-0.80;99.90;;;;;;5008842;28;20324;-71
2021/12/19 02:35:55;;;;;;;0.85;0.85;;;-0.90;99.90;;;;;;5010992;28;20221;-71
2021/12/19 02:49:16;;;;;;;0.70;0.70;;;-1.20;99.90;;;;;;5014075;28;20585;-71
2021/12/19 02:51:42;;;;;;;0.80;0.80;;;-1.30;99.90;;;;;;5012494;28;20206;-71
2021/12/19 02:54:07;;;;;;;0.63;0.63;;;-1.40;99.90;;;;;;5015262;28;20213;-71
2021/12/19 02:56:33;;;;;;;0.60;0.60;;;-1.30;99.90;;;;;;5013638;28;20253;-71
2021/12/19 02:58:59;;;;;;;0.70;0.70;;;-1.30;99.90;;;;;;5015132;28;20205;-71
2021/12/19 03:01:26;;;;;;;0.80;0.80;;;-1.30;99.90;;;;;;5012649;28;20203;-71
2021/12/19 03:03:51;;;;;;;0.70;0.70;;;-1.30;99.90;;;;;;5015077;28;20654;-71
2021/12/19 03:06:17;;;;;;;0.70;0.70;;;-1.30;99.90;;;;;;5013628;28;20285;-71
2021/12/19 03:08:46;;;;;;;0.60;0.60;;;-1.30;99.90;;;;;;5015852;28;20625;-70
2021/12/19 03:19:42;;;;;;;0.60;0.60;;;-1.10;99.90;;;;;;5010171;28;20218;-72
2021/12/19 03:22:07;;;;;;;0.70;0.70;;;-1.10;99.90;;;;;;5014534;28;20207;-71
2021/12/19 03:24:33;;;;;;;0.60;0.60;;;-0.90;99.90;;;;;;5014457;28;20233;-71
2021/12/19 03:26:59;;;;;;;0.70;0.70;;;-0.30;99.90;;;;;;5014715;28;20203;-71
2021/12/19 03:29:24;;;;;;;0.80;0.80;;;0.10;99.90;;;;;;5013210;28;20218;-72
2021/12/19 03:31:50;;;;;;;0.70;0.70;;;0.50;99.90;;;;;;5014489;28;20276;-71
2021/12/19 03:34:16;;;;;;;0.73;0.73;;;1.10;99.90;;;;;;5015596;28;20202;-71
2021/12/19 03:36:42;;;;;;;0.70;0.70;;;1.70;99.90;;;;;;5011445;28;20207;-71
2021/12/19 03:39:14;;;;;;;0.60;0.60;;;1.80;99.90;;;;;;5011754;28;20230;-72
2021/12/19 03:41:43;;;;;;;0.70;0.70;;;2.10;99.90;;;;;;5012953;28;20206;-71
2021/12/19 03:44:09;;;;;;;0.50;0.50;;;2.40;99.90;;;;;;5013001;28;20647;-71
2021/12/19 03:46:35;;;;;;;0.70;0.70;;;2.20;99.90;;;;;;5016716;28;20567;-70
2021/12/19 03:49:01;;;;;;;0.60;0.60;;;2.40;99.90;;;;;;5027594;28;20260;-70
2021/12/19 03:51:27;;;;;;;0.70;0.70;;;2.60;99.90;;;;;;5012527;28;20195;-71
2021/12/19 03:53:53;;;;;;;0.73;0.73;;;2.60;99.90;;;;;;5011807;28;20202;-71
2021/12/19 03:56:18;;;;;;;0.70;0.70;;;2.60;99.90;;;;;;5011529;28;20206;-72
2021/12/19 03:58:44;;;;;;;0.80;0.80;;;2.40;99.90;;;;;;5014188;28;20219;-71
2021/12/19 04:01:10;;;;;;;0.70;0.70;;;2.40;99.90;;;;;;5011781;28;20203;-71
2021/12/19 04:03:37;;;;;;;0.60;0.60;;;2.50;99.90;;;;;;5013530;28;20536;-71
2021/12/19 04:06:04;;;;;;;0.50;0.50;;;2.50;99.90;;;;;;5013804;28;20256;-71
2021/12/19 04:08:30;;;;;;;0.52;0.52;;;2.60;99.90;;;;;;5013761;28;20336;-71
2021/12/19 04:10:56;;;;;;;0.60;0.60;;;2.50;99.90;;;;;;5010917;28;20558;-71
2021/12/19 04:13:23;;;;;;;0.70;0.70;;;2.20;99.90;;;;;;5010937;28;20213;-72
2021/12/19 04:15:50;;;;;;;0.70;0.70;;;2.20;99.90;;;;;;5014774;28;20234;-72
2021/12/19 04:18:16;;;;;;;0.70;0.70;;;2.30;99.90;;;;;;5013402;28;20210;-71
2021/12/19 04:20:42;;;;;;;0.60;0.60;;;2.20;99.90;;;;;;5012230;28;20203;-71
2021/12/19 04:23:08;;;;;;;0.70;0.70;;;2.10;99.90;;;;;;5012247;28;20203;-71
2021/12/19 04:25:34;;;;;;;0.60;0.60;;;2.10;99.90;;;;;;5012016;28;20291;-71
2021/12/19 04:28:00;;;;;;;0.70;0.70;;;2.40;99.90;;;;;;5013233;28;20297;-71
2021/12/19 04:30:26;;;;;;;0.70;0.70;;;2.20;99.90;;;;;;5012080;28;20218;-71
2021/12/19 04:33:07;;;;;;;0.70;0.70;;;2.20;99.90;;;;;;5012070;28;20750;-71
2021/12/19 04:35:36;;;;;;;0.60;0.60;;;2.40;99.90;;;;;;5011775;28;20289;-71
2021/12/19 04:40:52;;;;;;;0.80;0.80;;;2.60;99.90;;;;;;5013355;28;20214;-71
2021/12/19 04:56:39;;;;;;;0.60;0.60;;;2.80;99.90;;;;;;5011856;28;20233;-71
2021/12/19 05:14:24;;;;;;;0.70;0.70;;;2.70;99.90;;;;;;5011727;28;20615;-71
2021/12/19 05:16:51;;;;;;;0.60;0.60;;;2.80;99.90;;;;;;5007871;28;20219;-70
2021/12/19 05:19:30;;;;;;;0.65;0.65;;;2.90;99.90;;;;;;5012530;28;20199;-70
2021/12/19 05:22:00;;;;;;;0.70;0.70;;;2.90;99.90;;;;;;5012486;28;20662;-71
2021/12/19 05:24:47;;;;;;;0.70;0.70;;;2.80;99.90;;;;;;5010966;28;20206;-71
2021/12/19 05:27:12;;;;;;;0.70;0.70;;;2.80;99.90;;;;;;5012451;28;20197;-72
2021/12/19 05:29:39;;;;;;;0.70;0.70;;;2.90;99.90;;;;;;5011058;28;20207;-71
2021/12/19 05:32:06;;;;;;;0.60;0.60;;;3.00;99.90;;;;;;5012255;28;20644;-71
2021/12/19 05:34:32;;;;;;;0.57;0.57;;;3.10;99.90;;;;;;5010995;28;20229;-71
2021/12/19 05:45:12;;;;;;;0.60;0.60;;;3.20;99.90;;;;;;5011181;28;20257;-72
2021/12/19 05:47:39;;;;;;;0.90;0.90;;;3.40;99.90;;;;;;5011663;28;20214;-72
2021/12/19 05:50:06;;;;;;;0.60;0.60;;;3.40;99.90;;;;;;5010766;28;20419;-72
2021/12/19 05:52:32;;;;;;;0.60;0.60;;;3.40;99.90;;;;;;5010480;28;20214;-72
2021/12/19 05:54:57;;;;;;;0.52;0.52;;;3.30;99.90;;;;;;5010787;28;20230;-73
2021/12/19 05:57:23;;;;;;;0.70;0.70;;;3.30;99.90;;;;;;5008983;28;20695;-72
2021/12/19 05:59:50;;;;;;;0.85;0.85;;;3.20;99.90;;;;;;5011930;28;20203;-71
2021/12/19 06:02:17;;;;;;;0.70;0.70;;;3.10;99.90;;;;;;5011646;28;20669;-72
2021/12/19 06:04:43;;;;;;;0.80;0.80;;;3.10;99.90;;;;;;5010372;28;20716;-72
2021/12/19 06:07:08;;;;;;;0.68;0.68;;;3.10;99.90;;;;;;5011678;28;20219;-71
2021/12/19 06:09:34;;;;;;;0.70;0.70;;;3.00;99.90;;;;;;5011455;28;20257;-71
2021/12/19 06:12:00;;;;;;;0.70;0.70;;;2.80;99.90;;;;;;5010337;28;20284;-71
2021/12/19 06:14:31;;;;;;;0.80;0.80;;;2.70;99.90;;;;;;5011647;28;20321;-71
2021/12/19 06:16:58;;;;;;;0.77;0.77;;;2.80;99.90;;;;;;4993266;28;20214;-72
2021/12/19 06:19:23;;;;;;;0.65;0.65;;;2.70;99.90;;;;;;5010941;28;20285;-72
2021/12/19 06:21:49;;;;;;;0.70;0.70;;;2.60;99.90;;;;;;5011360;28;20278;-72
2021/12/19 06:24:14;;;;;;;0.50;0.50;;;2.50;99.90;;;;;;5010914;28;20207;-71
2021/12/19 06:26:40;;;;;;;0.70;0.70;;;2.60;99.90;;;;;;5009832;28;20621;-71
2021/12/19 06:29:06;;;;;;;0.80;0.80;;;2.70;99.90;;;;;;5010087;28;20268;-71
2021/12/19 06:31:32;;;;;;;0.70;0.70;;;2.60;99.90;;;;;;5011141;28;20226;-71
2021/12/19 06:33:58;;;;;;;0.80;0.80;;;2.80;99.90;;;;;;5011387;28;20259;-71
2021/12/19 06:36:24;;;;;;;0.60;0.60;;;3.00;99.90;;;;;;5009709;28;20206;-70
2021/12/19 06:38:49;;;;;;;0.65;0.65;;;2.90;99.90;;;;;;5010047;28;20214;-71
2021/12/19 06:41:15;;;;;;;0.63;0.63;;;2.80;99.90;;;;;;5009041;28;20252;-71
2021/12/19 06:43:41;;;;;;;0.70;0.70;;;2.80;99.90;;;;;;5009797;28;20200;-71
2021/12/19 06:46:08;;;;;;;0.70;0.70;;;2.80;99.90;;;;;;5009811;28;20210;-71
2021/12/19 06:48:33;;;;;;;0.65;0.65;;;2.80;99.90;;;;;;5009659;28;20214;-71
2021/12/19 06:50:59;;;;;;;0.75;0.75;;;2.70;99.90;;;;;;5022820;28;20681;-71
2021/12/19 06:53:25;;;;;;;0.70;0.70;;;2.60;99.90;;;;;;5008387;28;20203;-71
2021/12/19 06:55:51;;;;;;;0.80;0.80;;;2.60;99.90;;;;;;5009765;28;20198;-70
2021/12/19 06:58:17;;;;;;;0.60;0.60;;;2.60;99.90;;;;;;5009997;28;20218;-70
2021/12/19 07:00:43;;;;;;;2.33;1.65;;;2.70;99.90;;;;;;5010708;28;20673;-69
2021/12/19 07:03:11;;;;;;;1.42;1.38;;;2.50;99.90;;;;;;5009829;28;20214;-70
2021/12/19 07:05:37;;;;;;;1.00;0.90;;;2.50;99.90;;;;;;5011057;28;20229;-71
2021/12/19 07:08:03;;;;;;;0.70;0.70;;;2.40;99.90;;;;;;5011132;28;20282;-71
2021/12/19 07:10:29;;;;;;;0.63;0.63;;;2.40;99.90;;;;;;5011255;28;20247;-71
2021/12/19 07:12:55;;;;;;;1.52;1.42;;;2.50;99.90;;;;;;5008381;28;20234;-71
2021/12/19 07:15:24;;;;;;;1.42;1.35;;;2.40;99.90;;;;;;5010775;28;20234;-71
2021/12/19 07:17:50;;;;;;;0.80;0.80;;;2.50;99.90;;;;;;5009637;28;20726;-71
2021/12/19 07:20:16;;;;;;;0.60;0.60;;;2.40;99.90;;;;;;5010937;28;20206;-70
2021/12/19 07:22:41;;;;;;;0.70;0.70;;;2.30;99.90;;;;;;5010682;28;20207;-70
2021/12/19 07:25:08;;;;;;;0.60;0.60;;;2.30;99.90;;;;;;5010948;28;20713;-71
2021/12/19 07:27:33;;;;;;;0.70;0.70;;;2.30;99.90;;;;;;5010707;28;20199;-70
2021/12/19 07:29:59;;;;;;;3.38;1.50;;;2.20;99.90;;;;;;5009528;28;20740;-70
2021/12/19 07:32:25;;;;;;;0.60;0.60;;;2.30;99.90;;;;;;5012561;28;20238;-70
2021/12/19 07:34:52;;;;;;;0.52;0.52;;;2.20;99.90;;;;;;5013064;28;20719;-70
2021/12/19 07:37:21;;;;;;;0.80;0.80;;;2.30;99.90;;;;;;5011968;28;20206;-70
2021/12/19 07:39:58;;;;;;;0.70;0.70;;;2.10;99.90;;;;;;5013012;28;20194;-70
2021/12/19 07:42:24;;;;;;;0.70;0.70;;;2.20;99.90;;;;;;5012874;28;20202;-70
2021/12/19 07:44:50;;;;;;;0.90;0.88;;;2.10;99.90;;;;;;5013162;28;20286;-70
2021/12/19 07:47:16;;;;;;;2.70;1.88;;;2.10;99.90;;;;;;5014237;28;20210;-70
2021/12/19 07:49:42;;;;;;;0.60;0.60;;;2.10;99.90;;;;;;5014105;28;20697;-70
2021/12/19 07:52:07;;;;;;;0.60;0.60;;;2.00;99.90;;;;;;5009937;28;20202;-71
2021/12/19 07:54:33;;;;;;;0.70;0.70;;;2.00;99.90;;;;;;5012530;28;20205;-70
2021/12/19 07:56:59;;;;;;;0.73;0.73;;;2.00;99.90;;;;;;5012833;28;20215;-70
2021/12/19 07:59:25;;;;;;;0.70;0.70;;;2.00;99.90;;;;;;5013996;28;20198;-70
2021/12/19 08:01:51;;;;;;;0.70;0.70;;;2.20;99.90;;;;;;5011820;28;20202;-70
2021/12/19 08:04:16;;;;;;;0.68;0.68;;;2.10;99.90;;;;;;5011382;28;20207;-70
2021/12/19 08:06:42;;;;;;;0.70;0.70;;;2.10;99.90;;;;;;5013859;28;20203;-70
2021/12/19 08:09:10;;;;;;;0.60;0.60;;;2.00;99.90;;;;;;5013839;28;20226;-70
2021/12/19 08:11:42;;;;;;;0.90;0.90;;;2.00;99.90;;;;;;5011068;28;20202;-70
2021/12/19 08:14:10;;;;;;;0.70;0.70;;;2.00;99.90;;;;;;5013999;28;20202;-70
2021/12/19 08:16:37;;;;;;;0.70;0.70;;;2.20;99.90;;;;;;5010966;28;20655;-70
2021/12/19 08:19:04;;;;;;;0.52;0.52;;;2.20;99.90;;;;;;5013617;28;20214;-70
2021/12/19 08:21:30;;;;;;;0.80;0.80;;;2.20;99.90;;;;;;5013397;28;20209;-70
2021/12/19 08:24:01;;;;;;;0.70;0.70;;;2.20;99.90;;;;;;5012212;28;20203;-71
2021/12/19 08:26:28;;;;;;;1.08;1.00;;;2.20;99.90;;;;;;5012012;28;20213;-70
2021/12/19 08:28:53;;;;;;;0.80;0.80;;;2.20;99.90;;;;;;5013511;28;20253;-70
2021/12/19 08:31:20;;;;;;;0.63;0.63;;;2.30;99.90;;;;;;5012036;28;20211;-70
2021/12/19 08:33:46;;;;;;;0.60;0.60;;;2.20;99.90;;;;;;5013411;28;20203;-70
2021/12/19 08:36:12;;;;;;;1.55;1.35;;;2.10;99.90;;;;;;5013133;28;20206;-70
2021/12/19 08:38:38;;;;;;;0.80;0.80;;;2.10;99.90;;;;;;5011813;28;20218;-71
2021/12/19 08:41:03;;;;;;;1.85;1.75;;;2.10;99.90;;;;;;5013172;28;20274;-70
2021/12/19 08:43:29;;;;;;;3.22;1.55;;;2.10;99.90;;;;;;5012600;28;20619;-70
2021/12/19 08:45:55;;;;;;;1.33;1.23;;;2.00;99.90;;;;;;5013030;28;20229;-71
2021/12/19 08:48:21;;;;;;;0.90;0.90;;;1.90;99.90;;;;;;5010264;28;20619;-71
2021/12/19 08:50:47;;;;;;;0.70;0.70;;;2.00;99.90;;;;;;5011944;28;20207;-71
2021/12/19 08:53:13;;;;;;;0.60;0.60;;;2.10;99.90;;;;;;5012024;28;20203;-71
2021/12/19 08:55:40;;;;;;;0.63;0.63;;;2.10;99.90;;;;;;5011980;28;20209;-71
2021/12/19 08:58:06;;;;;;;0.60;0.60;;;2.10;99.90;;;;;;5011382;28;20277;-71
2021/12/19 09:00:33;;;;;;;0.80;0.80;;;2.00;99.90;;;;;;5012978;28;20203;-71
2021/12/19 09:03:00;;;;;;;0.80;0.80;;;2.00;99.90;;;;;;5012919;28;20522;-71
2021/12/19 09:05:29;;;;;;;0.60;0.60;;;2.00;99.90;;;;;;5011219;28;20202;-70
2021/12/19 09:07:55;;;;;;;0.73;0.73;;;2.00;99.90;;;;;;5012706;28;20668;-71
2021/12/19 09:10:21;;;;;;;0.70;0.70;;;2.10;99.90;;;;;;5011136;28;20289;-71
2021/12/19 09:12:48;;;;;;;0.70;0.70;;;2.20;99.90;;;;;;5011382;28;20651;-70
2021/12/19 09:15:14;;;;;;;0.75;0.75;;;2.20;99.90;;;;;;5013416;28;20699;-71
2021/12/19 09:17:39;;;;;;;0.60;0.60;;;2.30;99.90;;;;;;5012476;28;20269;-71
2021/12/19 09:20:07;;;;;;;0.60;0.60;;;2.30;99.90;;;;;;5012498;28;20209;-71
2021/12/19 09:22:33;;;;;;;0.70;0.70;;;2.30;99.90;;;;;;5011085;28;20211;-71
2021/12/19 09:24:59;;;;;;;4.97;2.35;;;2.30;99.90;;;;;;5012916;28;20289;-71
2021/12/19 09:27:25;;;;;;;0.60;0.60;;;2.30;99.90;;;;;;5012210;28;20727;-71
2021/12/19 09:29:52;;;;;;;0.63;0.63;;;2.30;99.90;;;;;;5012305;28;20211;-71
2021/12/19 09:32:18;;;;;;;0.77;0.77;;;2.50;99.90;;;;;;5011083;28;20234;-71
2021/12/19 09:34:44;;;;;;;0.80;0.80;;;2.40;99.90;;;;;;5009471;28;20202;-71
2021/12/19 09:37:09;;;;;;;0.50;0.50;;;2.40;99.90;;;;;;5012019;28;20559;-71
2021/12/19 09:39:35;;;;;;;0.82;0.82;;;2.30;99.90;;;;;;5010744;28;20610;-70
2021/12/19 09:42:09;;;;;;;0.60;0.60;;;2.30;99.90;;;;;;5010651;28;20280;-71
2021/12/19 09:44:36;;;;;;;0.60;0.60;;;2.30;99.90;;;;;;5010543;28;20199;-70
2021/12/19 09:47:04;;;;;;;0.75;0.75;;;2.40;99.90;;;;;;5012258;28;20234;-71
2021/12/19 09:49:30;;;;;;;0.70;0.70;;;2.40;99.90;;;;;;5011854;28;20195;-71
2021/12/19 09:51:55;;;;;;;0.60;0.60;;;2.30;99.90;;;;;;5012018;28;20576;-71
2021/12/19 09:54:21;;;;;;;0.68;0.68;;;2.30;99.90;;;;;;5009499;28;20191;-71
2021/12/19 09:56:48;;;;;;;0.80;0.80;;;2.20;99.90;;;;;;5012058;28;20257;-71
2021/12/19 09:59:18;;;;;;;0.70;0.70;;;2.30;99.90;;;;;;5011660;28;20202;-71
2021/12/19 10:01:44;;;;;;;0.80;0.80;;;2.20;99.90;;;;;;5011362;28;20353;-71
2021/12/19 10:04:28;;;;;;;0.70;0.70;;;2.30;99.90;;;;;;5008569;28;20203;-71
2021/12/19 10:07:08;;;;;;;0.80;0.80;;;2.30;99.90;;;;;;5009808;28;20237;-71
2021/12/19 10:09:37;;;;;;;0.60;0.60;;;2.30;99.90;;;;;;5011861;28;20693;-71
2021/12/19 10:15:00;;;;;;;0.60;0.60;;;2.30;99.90;;;;;;5009499;28;20291;-72
2021/12/19 10:17:26;;;;;;;0.55;0.55;;;2.30;99.90;;;;;;5011469;28;20561;-70
2021/12/19 10:19:57;;;;;;;0.85;0.85;;;2.40;99.90;;;;;;5011709;28;20207;-71
2021/12/19 10:22:39;;;;;;;0.60;0.60;;;2.40;99.90;;;;;;5008813;28;20210;-70
2021/12/19 10:25:12;;;;;;;0.70;0.70;;;2.40;99.90;;;;;;5009661;28;20199;-70
2021/12/19 10:27:41;;;;;;;0.55;0.55;;;2.40;99.90;;;;;;5009839;28;20293;-70
2021/12/19 10:30:27;;;;;;;0.60;0.60;;;2.30;99.90;;;;;;5009346;28;20677;-71
2021/12/19 10:33:14;;;;;;;0.63;0.63;;;2.40;99.90;;;;;;4995860;28;20261;-71
2021/12/19 10:35:43;;;;;;;0.57;0.57;;;2.40;99.90;;;;;;5010735;28;20890;-70
2021/12/19 10:38:18;;;;;;;0.60;0.60;;;2.40;99.90;;;;;;5009814;28;20613;-70
2021/12/19 10:40:46;;;;;;;0.57;0.57;;;2.30;99.90;;;;;;5011097;28;20280;-72
2021/12/19 10:43:16;;;;;;;1.27;1.17;;;2.30;99.90;;;;;;5009791;28;20563;-71
2021/12/19 10:45:55;;;;;;;0.70;0.70;;;2.20;99.90;;;;;;5008528;28;20293;-70
2021/12/19 10:48:23;;;;;;;0.55;0.55;;;2.20;99.90;;;;;;5010775;28;20194;-70
2021/12/19 10:50:53;;;;;;;0.60;0.60;;;2.20;99.90;;;;;;5009137;28;20293;-70
2021/12/19 10:53:43;;;;;;;0.70;0.70;;;2.20;99.90;;;;;;5009662;28;20724;-70
2021/12/19 10:56:18;;;;;;;0.77;0.77;;;2.20;99.90;;;;;;5010694;28;20218;-71
2021/12/19 10:58:52;;;;;;;0.65;0.65;;;2.20;99.90;;;;;;5009748;28;20624;-71
2021/12/19 11:01:25;;;;;;;3.92;2.55;;;2.40;99.90;;;;;;5011047;28;20199;-70
2021/12/19 11:04:16;;;;;;;0.68;0.68;;;2.40;99.90;;;;;;5008415;28;20230;-70
2021/12/19 11:06:51;;;;;;;0.70;0.70;;;2.40;99.90;;;;;;5006437;28;20293;-70
2021/12/19 11:09:28;;;;;;;0.63;0.63;;;2.40;99.90;;;;;;5013466;28;20195;-70
2021/12/19 11:12:01;;;;;;;0.70;0.70;;;2.40;99.90;;;;;;5013569;28;20272;-70
2021/12/19 11:14:43;;;;;;;1.20;1.13;;;2.30;99.90;;;;;;5014448;28;20685;-71
2021/12/19 11:17:21;;;;;;;0.70;0.70;;;2.30;99.90;;;;;;5014695;28;20207;-71
2021/12/19 11:19:49;;;;;;;0.65;0.65;;;2.40;99.90;;;;;;5013363;28;20210;-71
2021/12/19 11:22:24;;;;;;;0.63;0.63;;;2.40;99.90;;;;;;5013274;28;20202;-70
2021/12/19 11:24:53;;;;;;;0.70;0.70;;;2.40;99.90;;;;;;5016170;28;20199;-70
2021/12/19 11:27:20;;;;;;;0.60;0.60;;;2.40;99.90;;;;;;5011837;28;20580;-70
2021/12/19 11:29:48;;;;;;;0.70;0.70;;;2.40;99.90;;;;;;5012424;28;20574;-70
2021/12/19 11:32:19;;;;;;;0.60;0.60;;;2.40;99.90;;;;;;5012398;28;20206;-70
2021/12/19 11:34:59;;;;;;;0.52;0.52;;;2.50;99.90;;;;;;5013080;28;20214;-70
2021/12/19 11:37:34;;;;;;;0.70;0.70;;;2.50;99.90;;;;;;5013242;28;20215;-70
2021/12/19 11:40:01;;;;;;;0.80;0.80;;;2.60;99.90;;;;;;5014278;28;20207;-70
2021/12/19 11:42:38;;;;;;;0.60;0.60;;;2.40;99.90;;;;;;5011351;28;20277;-70
2021/12/19 11:45:36;;;;;;;0.60;0.60;;;2.40;99.90;;;;;;5012888;28;20680;-70
2021/12/19 11:50:53;;;;;;;0.60;0.60;;;2.20;99.90;;;;;;5009286;28;20298;-71
2021/12/19 11:53:21;;;;;;;0.80;0.80;;;2.20;99.90;;;;;;5012902;28;20235;-70
2021/12/19 11:55:53;;;;;;;0.60;0.60;;;2.30;99.90;;;;;;5012731;28;20216;-71
2021/12/19 11:58:27;;;;;;;0.70;0.70;;;2.30;99.90;;;;;;5012673;28;20203;-70
2021/12/19 12:01:00;;;;;;;0.77;0.77;;;2.20;99.90;;;;;;5011152;28;20199;-71
2021/12/19 12:03:32;;;;;;;0.80;0.80;;;2.20;99.90;;;;;;5013652;28;20206;-71
2021/12/19 12:05:58;;;;;;;0.75;0.75;;;2.20;99.90;;;;;;5012539;28;20300;-70
2021/12/19 12:08:29;;;;;;;0.68;0.68;;;2.30;99.90;;;;;;5013766;28;20662;-70
2021/12/19 12:10:56;;;;;;;0.60;0.60;;;2.30;99.90;;;;;;4996648;28;20599;-71
2021/12/19 12:13:27;;;;;;;0.70;0.70;;;2.20;99.90;;;;;;5012507;28;20198;-71
2021/12/19 12:16:06;;;;;;;0.75;0.75;;;2.20;99.90;;;;;;5013816;28;20245;-71
2021/12/19 12:18:35;;;;;;;0.52;0.52;;;2.20;99.90;;;;;;5009791;28;20245;-71
2021/12/19 12:21:31;;;;;;;0.65;0.65;;;2.20;99.90;;;;;;5012652;28;20190;-70
2021/12/19 12:24:06;;;;;;;0.70;0.70;;;2.20;99.90;;;;;;4997600;28;20314;-70
2021/12/19 12:26:39;;;;;;;0.65;0.65;;;2.10;99.90;;;;;;5013446;28;20225;-70
2021/12/19 12:29:05;;;;;;;0.57;0.57;;;2.10;99.90;;;;;;5010898;28;20211;-70
2021/12/19 12:31:31;;;;;;;0.60;0.60;;;2.20;99.90;;;;;;5013406;28;20260;-70
2021/12/19 12:33:57;;;;;;;0.85;0.85;;;2.30;99.90;;;;;;5011951;28;20222;-70
2021/12/19 12:36:24;;;;;;;0.60;0.60;;;2.40;99.90;;;;;;5013407;28;20634;-70
2021/12/19 12:38:53;;;;;;;0.65;0.65;;;2.40;99.90;;;;;;5012523;28;20229;-70
2021/12/19 12:44:22;;;;;;;0.70;0.70;;;2.50;99.90;;;;;;4970916;28;20196;-71
2021/12/19 12:46:50;;;;;;;0.65;0.65;;;2.30;99.90;;;;;;4972372;28;20215;-71
2021/12/19 12:49:24;;;;;;;0.93;0.93;;;2.40;99.90;;;;;;4971200;28;20299;-70
2021/12/19 12:52:00;;;;;;;0.70;0.70;;;2.30;99.90;;;;;;4956173;28;20207;-70
2021/12/19 12:54:37;;;;;;;0.70;0.70;;;2.30;99.90;;;;;;4970283;28;20200;-70
2021/12/19 12:57:09;;;;;;;0.50;0.50;;;2.40;99.90;;;;;;4971488;28;20200;-70
2021/12/19 12:59:41;;;;;;;0.70;0.70;;;2.50;99.90;;;;;;4969794;28;20307;-71
2021/12/19 13:04:34;;;;;;;1.15;1.05;;;2.40;99.90;;;;;;4970630;28;20322;-70
2021/12/19 13:07:11;;;;;;;4.50;3.25;;;2.40;99.90;;;;;;4971099;28;20714;-70
2021/12/19 13:09:47;;;;;;;0.75;0.75;;;2.30;99.90;;;;;;4970477;28;20298;-70
2021/12/19 13:12:28;;;;;;;0.77;0.77;;;2.30;99.90;;;;;;4970361;28;20220;-71
2021/12/19 13:14:57;;;;;;;0.77;0.77;;;2.30;99.90;;;;;;4971447;28;20268;-70
2021/12/19 13:17:27;;;;;;;0.80;0.80;;;2.40;99.90;;;;;;4975252;28;20738;-70
2021/12/19 13:20:10;;;;;;;0.63;0.63;;;2.30;99.90;;;;;;5013051;28;20214;-71
2021/12/19 13:22:47;;;;;;;0.60;0.60;;;2.30;99.90;;;;;;5011470;28;20206;-70
2021/12/19 13:25:25;;;;;;;0.70;0.70;;;2.40;99.90;;;;;;5010511;28;20206;-71
2021/12/19 13:27:54;;;;;;;0.90;0.90;;;2.40;99.90;;;;;;5011044;28;20214;-71
2021/12/19 13:30:23;;;;;;;0.63;0.63;;;2.40;99.90;;;;;;5010624;28;20277;-70
2021/12/19 13:32:55;;;;;;;0.60;0.60;;;2.40;99.90;;;;;;5012117;28;20206;-70
2021/12/19 13:35:31;;;;;;;0.70;0.70;;;2.30;99.90;;;;;;5009854;28;20205;-71
2021/12/19 13:38:02;;;;;;;0.60;0.60;;;2.20;99.90;;;;;;5011340;28;20245;-70
2021/12/19 13:40:42;;;;;;;0.70;0.70;;;2.30;99.90;;;;;;5011040;28;20206;-70
2021/12/19 13:43:22;;;;;;;0.63;0.63;;;2.20;99.90;;;;;;5012390;28;20198;-70
2021/12/19 13:45:49;;;;;;;0.93;0.90;;;2.10;99.90;;;;;;5011962;28;20623;-71
2021/12/19 13:48:28;;;;;;;0.60;0.60;;;2.20;99.90;;;;;;5012377;28;20253;-70
2021/12/19 13:51:03;;;;;;;0.60;0.60;;;2.20;99.90;;;;;;5026662;28;20661;-70
2021/12/19 13:53:32;;;;;;;0.70;0.70;;;2.20;99.90;;;;;;5011375;28;20198;-70
2021/12/19 13:55:58;;;;;;;0.60;0.60;;;2.10;99.90;;;;;;5011397;28;20209;-71
2021/12/19 13:58:29;;;;;;;1.05;1.02;;;2.00;99.90;;;;;;5011572;28;20214;-72
2021/12/19 14:00:56;;;;;;;0.63;0.63;;;2.00;99.90;;;;;;5011611;28;20203;-70
2021/12/19 14:03:43;;;;;;;0.60;0.60;;;2.00;99.90;;;;;;5010344;28;20725;-70
2021/12/19 14:06:10;;;;;;;0.60;0.60;;;2.00;99.90;;;;;;5011296;28;20206;-70
2021/12/19 14:08:36;;;;;;;0.60;0.60;;;2.00;99.90;;;;;;5010705;28;20209;-70
2021/12/19 14:11:10;;;;;;;0.70;0.70;;;2.00;99.90;;;;;;5011576;28;20646;-70
2021/12/19 14:13:38;;;;;;;0.63;0.63;;;2.00;99.90;;;;;;5010591;28;20251;-70
2021/12/19 14:16:07;;;;;;;0.52;0.52;;;2.10;99.90;;;;;;5011544;28;20628;-70
2021/12/19 14:18:44;;;;;;;0.70;0.70;;;2.10;99.90;;;;;;5010099;28;20317;-70